Darstellungsparameter: Aktuell verwendete Einstellungen:
Skalierung der Graphiken ... ?
xyx+y,   Skalierungsfaktor:      Skalierung: Modus: x, Faktor: 1
Darstellungszeitraum ... ?
Vom - - bis: - -   Zeitraum: 06.12.2013 - 06.12.2013
Min/Max/Avg-Anzeige ... ?
Zeige MMA aktuell
Zeige MMA Monat
Zeige MMA alles
Zeige --A aktuell
Zeige --A Monat
Zeige --A alles
Keine MMA-Anzeige
MMA:
Keine MMA-Graphiken
MMA-Basis: 06.12.2013 - 06.12.2013
Quicknavigation für Darstellung... ?
Tage:      1T, 2T, 3T, 5T -1T -2T -3T -5T +1T +2T +3T +5T
Wochen: 1W, 2W, 3W -1W -2W -3W +1W +2W +3W
Monate: 1M, 3M, 6M -1M -3M -6M +1M +3M +6M
Jahre:    1J, 3J, 5J, 10J -1J -3J -5J -10J +1J +3J +5J +10J
Nutze für die Darstellung ... ?
Originaldaten oder Mittelwerte auf ...
Stundenbasis Tagesbasis Wochenbasis
Monatsbasis Jahresbasis      Datenbasis: Original-Daten
Darstellen als:
Statistik (Auto) Statistik J:M      Darstellung:
Zur Graphik,    zurück zur Übersicht aller Sensoren.
 
Tabellarische Datenbersicht: ?
 
Sensor: Nr:Datum:Temp:Abs-Feuchte:Windchill:Wind:
Aussen-T/F 1 06-12-2013 00:00:00 3.2 C 5.36 g/m*3 -0.39 C 14.5 km/h
2 06-12-2013 00:05:00 3.2 C 5.36 g/m*3 -0.89 C 17.7 km/h
3 06-12-2013 00:10:00 3.2 C 5.36 g/m*3 -0.89 C 17.7 km/h
4 06-12-2013 00:15:00 3.2 C 5.36 g/m*3 -0.39 C 14.5 km/h
5 06-12-2013 00:20:00 3.1 C 5.33 g/m*3 0.87 C 8.1 km/h
6 06-12-2013 00:25:00 3.1 C 5.27 g/m*3 0.46 C 9.7 km/h
7 06-12-2013 00:30:00 3 C 5.29 g/m*3 -0.02 C 11.3 km/h
8 06-12-2013 00:35:00 3.1 C 5.33 g/m*3 -0.22 C 12.9 km/h
9 06-12-2013 00:40:00 3 C 5.35 g/m*3 -0.02 C 11.3 km/h
10 06-12-2013 00:45:00 3 C 5.35 g/m*3 3 C 4.8 km/h
11 06-12-2013 00:50:00 2.9 C 5.37 g/m*3 0.64 C 8.1 km/h
12 06-12-2013 00:55:00 2.9 C 5.32 g/m*3 0.64 C 8.1 km/h
13 06-12-2013 01:00:00 3.2 C 5.3 g/m*3 0.99 C 8.1 km/h
14 06-12-2013 01:05:00 3.4 C 5.31 g/m*3 3.4 C 4.8 km/h
15 06-12-2013 01:10:00 3.3 C 5.28 g/m*3 1.11 C 8.1 km/h
16 06-12-2013 01:15:00 3.3 C 5.22 g/m*3 0.7 C 9.7 km/h
17 06-12-2013 01:20:00 3.4 C 5.19 g/m*3 1.75 C 6.4 km/h
18 06-12-2013 01:25:00 3.3 C 5.16 g/m*3 0.02 C 12.9 km/h
19 06-12-2013 01:30:00 3.4 C 5.13 g/m*3 1.75 C 6.4 km/h
20 06-12-2013 01:35:00 3.6 C 5.08 g/m*3 1.98 C 6.4 km/h
21 06-12-2013 01:40:00 3.7 C 4.92 g/m*3 0.23 C 14.5 km/h
22 06-12-2013 01:45:00 3.8 C 4.89 g/m*3 0.63 C 12.9 km/h
23 06-12-2013 01:50:00 3.8 C 4.83 g/m*3 0.94 C 11.3 km/h
24 06-12-2013 01:55:00 3.8 C 4.77 g/m*3 1.7 C 8.1 km/h
25 06-12-2013 02:00:00 3.8 C 4.77 g/m*3 1.7 C 8.1 km/h
Sensor: Nr:Datum:Temp:Abs-Feuchte:Windchill:Wind:
Aussen-T/F 26 06-12-2013 02:05:00 3.8 C 4.77 g/m*3 1.29 C 9.7 km/h
27 06-12-2013 02:10:00 3.7 C 4.74 g/m*3 0.82 C 11.3 km/h
28 06-12-2013 02:15:00 3.7 C 4.74 g/m*3 0.51 C 12.9 km/h
29 06-12-2013 02:20:00 3.7 C 4.74 g/m*3 0.51 C 12.9 km/h
30 06-12-2013 02:25:00 3.8 C 4.71 g/m*3 0.63 C 12.9 km/h
31 06-12-2013 02:30:00 3.7 C 4.74 g/m*3 1.58 C 8.1 km/h
32 06-12-2013 02:35:00 3.7 C 4.74 g/m*3 0.23 C 14.5 km/h
33 06-12-2013 02:40:00 3.5 C 4.73 g/m*3 1.86 C 6.4 km/h
34 06-12-2013 02:45:00 3.3 C 4.67 g/m*3 0.34 C 11.3 km/h
35 06-12-2013 02:50:00 3.3 C 4.73 g/m*3 1.63 C 6.4 km/h
36 06-12-2013 02:55:00 3.3 C 4.73 g/m*3 0.7 C 9.7 km/h
37 06-12-2013 03:00:00 3.2 C 4.7 g/m*3 0.58 C 9.7 km/h
38 06-12-2013 03:05:00 3.3 C 4.67 g/m*3 1.11 C 8.1 km/h
39 06-12-2013 03:10:00 3.5 C 4.67 g/m*3 1.34 C 8.1 km/h
40 06-12-2013 03:15:00 3.4 C 4.64 g/m*3 1.23 C 8.1 km/h
41 06-12-2013 03:20:00 3.4 C 4.7 g/m*3 0.46 C 11.3 km/h
42 06-12-2013 03:25:00 3.5 C 4.73 g/m*3 0.58 C 11.3 km/h
43 06-12-2013 03:30:00 3.6 C 4.77 g/m*3 1.46 C 8.1 km/h
44 06-12-2013 03:35:00 3.6 C 4.77 g/m*3 1.98 C 6.4 km/h
45 06-12-2013 03:40:00 3.7 C 4.74 g/m*3 -0.03 C 16.1 km/h
46 06-12-2013 03:45:00 3.7 C 4.74 g/m*3 0.51 C 12.9 km/h
47 06-12-2013 03:50:00 3.8 C 4.71 g/m*3 0.1 C 16.1 km/h
48 06-12-2013 03:55:00 3.9 C 4.74 g/m*3 0.75 C 12.9 km/h
49 06-12-2013 04:00:00 3.9 C 4.74 g/m*3 -0.01 C 17.7 km/h
50 06-12-2013 04:05:00 4 C 4.77 g/m*3 1.53 C 9.7 km/h
Sensor: Nr:Datum:Temp:Abs-Feuchte:Windchill:Wind:
Aussen-T/F 51 06-12-2013 04:10:00 4 C 4.77 g/m*3 -0.11 C 19.3 km/h
52 06-12-2013 04:15:00 4.1 C 4.8 g/m*3 1 C 12.9 km/h
53 06-12-2013 04:20:00 4.2 C 4.77 g/m*3 1.12 C 12.9 km/h
54 06-12-2013 04:25:00 4.2 C 4.77 g/m*3 0.36 C 17.7 km/h
55 06-12-2013 04:30:00 4.3 C 4.8 g/m*3 0.97 C 14.5 km/h
56 06-12-2013 04:35:00 4.3 C 4.86 g/m*3 1.55 C 11.3 km/h
57 06-12-2013 04:40:00 4.2 C 4.83 g/m*3 0.59 C 16.1 km/h
58 06-12-2013 04:45:00 4.2 C 4.77 g/m*3 1.77 C 9.7 km/h
59 06-12-2013 04:50:00 4.2 C 4.77 g/m*3 1.12 C 12.9 km/h
60 06-12-2013 04:55:00 4.3 C 4.74 g/m*3 0.97 C 14.5 km/h
61 06-12-2013 05:00:00 4.4 C 4.7 g/m*3 0.84 C 16.1 km/h
62 06-12-2013 05:05:00 4.4 C 4.7 g/m*3 2.01 C 9.7 km/h
63 06-12-2013 05:10:00 4.4 C 4.77 g/m*3 1.67 C 11.3 km/h
64 06-12-2013 05:15:00 4.4 C 4.7 g/m*3 1.36 C 12.9 km/h
65 06-12-2013 05:20:00 4.4 C 4.64 g/m*3 0.61 C 17.7 km/h
66 06-12-2013 05:25:00 4.4 C 4.57 g/m*3 1.67 C 11.3 km/h
67 06-12-2013 05:30:00 4.5 C 4.67 g/m*3 0.96 C 16.1 km/h
68 06-12-2013 05:35:00 4.5 C 4.6 g/m*3 1.79 C 11.3 km/h
69 06-12-2013 05:40:00 4.6 C 4.57 g/m*3 -0.38 C 29 km/h
70 06-12-2013 05:45:00 4.6 C 4.57 g/m*3 1.09 C 16.1 km/h
71 06-12-2013 05:50:00 4.6 C 4.5 g/m*3 0.86 C 17.7 km/h
72 06-12-2013 05:55:00 4.6 C 4.43 g/m*3 1.09 C 16.1 km/h
73 06-12-2013 06:00:00 4.6 C 4.37 g/m*3 1.09 C 16.1 km/h
74 06-12-2013 06:05:00 4.6 C 4.37 g/m*3 1.09 C 16.1 km/h
75 06-12-2013 06:10:00 4.4 C 4.37 g/m*3 1.36 C 12.9 km/h
Sensor: Nr:Datum:Temp:Abs-Feuchte:Windchill:Wind:
Aussen-T/F 76 06-12-2013 06:15:00 4.4 C 4.44 g/m*3 2.01 C 9.7 km/h
77 06-12-2013 06:20:00 4.3 C 4.41 g/m*3 0.97 C 14.5 km/h
78 06-12-2013 06:25:00 4.4 C 4.51 g/m*3 1.36 C 12.9 km/h
79 06-12-2013 06:30:00 4.4 C 4.51 g/m*3 1.36 C 12.9 km/h
80 06-12-2013 06:35:00 4.4 C 4.64 g/m*3 0.84 C 16.1 km/h
81 06-12-2013 06:40:00 4.2 C 4.7 g/m*3 -0.24 C 22.5 km/h
82 06-12-2013 06:45:00 4.1 C 4.8 g/m*3 0.72 C 14.5 km/h
83 06-12-2013 06:50:00 3.9 C 4.8 g/m*3 -0.01 C 17.7 km/h
84 06-12-2013 06:55:00 3.7 C 4.86 g/m*3 -0.69 C 20.9 km/h
85 06-12-2013 07:00:00 3.6 C 4.89 g/m*3 -0.15 C 16.1 km/h
86 06-12-2013 07:05:00 3.4 C 4.83 g/m*3 -0.4 C 16.1 km/h
87 06-12-2013 07:10:00 3.3 C 4.79 g/m*3 -0.26 C 14.5 km/h
88 06-12-2013 07:15:00 3.4 C 4.83 g/m*3 0.46 C 11.3 km/h
89 06-12-2013 07:20:00 3.4 C 4.7 g/m*3 -0.4 C 16.1 km/h
90 06-12-2013 07:25:00 3.5 C 4.61 g/m*3 -0.28 C 16.1 km/h
91 06-12-2013 07:30:00 3.6 C 4.52 g/m*3 -0.15 C 16.1 km/h
92 06-12-2013 07:35:00 3.7 C 4.36 g/m*3 -0.03 C 16.1 km/h
93 06-12-2013 07:40:00 3.8 C 4.39 g/m*3 0.63 C 12.9 km/h
94 06-12-2013 07:45:00 3.9 C 4.36 g/m*3 0.75 C 12.9 km/h
95 06-12-2013 07:50:00 3.9 C 4.29 g/m*3 0.47 C 14.5 km/h
96 06-12-2013 07:55:00 3.8 C 4.33 g/m*3 -1.1 C 25.7 km/h
97 06-12-2013 08:00:00 3.8 C 4.33 g/m*3 1.29 C 9.7 km/h
98 06-12-2013 08:05:00 3.7 C 4.3 g/m*3 0.51 C 12.9 km/h
99 06-12-2013 08:10:00 3.7 C 4.3 g/m*3 1.18 C 9.7 km/h
100 06-12-2013 08:15:00 3.7 C 4.3 g/m*3 0.23 C 14.5 km/h
Sensor: Nr:Datum:Temp:Abs-Feuchte:Windchill:Wind:
Aussen-T/F 101 06-12-2013 08:20:00 3.7 C 4.36 g/m*3 0.51 C 12.9 km/h
102 06-12-2013 08:25:00 3.7 C 4.3 g/m*3 1.18 C 9.7 km/h
103 06-12-2013 08:30:00 3.7 C 4.3 g/m*3 0.51 C 12.9 km/h
104 06-12-2013 08:35:00 3.7 C 4.3 g/m*3 -0.03 C 16.1 km/h
105 06-12-2013 08:40:00 3.7 C 4.36 g/m*3 -0.26 C 17.7 km/h
106 06-12-2013 08:45:00 3.6 C 4.33 g/m*3 1.06 C 9.7 km/h
107 06-12-2013 08:50:00 3.6 C 4.33 g/m*3 0.39 C 12.9 km/h
108 06-12-2013 08:55:00 3.6 C 4.33 g/m*3 0.7 C 11.3 km/h
109 06-12-2013 09:00:00 3.7 C 4.36 g/m*3 -0.03 C 16.1 km/h
110 06-12-2013 09:05:00 3.7 C 4.3 g/m*3 0.23 C 14.5 km/h
111 06-12-2013 09:10:00 3.7 C 4.3 g/m*3 0.51 C 12.9 km/h
112 06-12-2013 09:15:00 3.8 C 4.33 g/m*3 -0.14 C 17.7 km/h
113 06-12-2013 09:20:00 3.8 C 4.33 g/m*3 -0.14 C 17.7 km/h
114 06-12-2013 09:25:00 3.8 C 4.33 g/m*3 -0.36 C 19.3 km/h
115 06-12-2013 09:30:00 3.8 C 4.33 g/m*3 -0.14 C 17.7 km/h
116 06-12-2013 09:35:00 3.9 C 4.36 g/m*3 0.75 C 12.9 km/h
117 06-12-2013 09:40:00 3.9 C 4.29 g/m*3 0.75 C 12.9 km/h
118 06-12-2013 09:45:00 4 C 4.32 g/m*3 0.34 C 16.1 km/h
119 06-12-2013 09:50:00 4 C 4.32 g/m*3 0.11 C 17.7 km/h
120 06-12-2013 09:55:00 4.1 C 4.35 g/m*3 0.24 C 17.7 km/h
121 06-12-2013 10:00:00 4.2 C 4.38 g/m*3 0.15 C 19.3 km/h
122 06-12-2013 10:05:00 4.2 C 4.38 g/m*3 0.84 C 14.5 km/h
123 06-12-2013 10:10:00 4.2 C 4.38 g/m*3 0.59 C 16.1 km/h
124 06-12-2013 10:15:00 4.3 C 4.35 g/m*3 -0.77 C 29 km/h
125 06-12-2013 10:20:00 4.3 C 4.41 g/m*3 0.72 C 16.1 km/h
Sensor: Nr:Datum:Temp:Abs-Feuchte:Windchill:Wind:
Aussen-T/F 126 06-12-2013 10:25:00 4.3 C 4.35 g/m*3 0.49 C 17.7 km/h
127 06-12-2013 10:30:00 4.3 C 4.41 g/m*3 0.27 C 19.3 km/h
128 06-12-2013 10:35:00 4.3 C 4.35 g/m*3 0.27 C 19.3 km/h
129 06-12-2013 10:40:00 4.3 C 4.35 g/m*3 -0.11 C 22.5 km/h
130 06-12-2013 10:45:00 4.4 C 4.37 g/m*3 0.61 C 17.7 km/h
131 06-12-2013 10:50:00 4.3 C 4.35 g/m*3 0.49 C 17.7 km/h
132 06-12-2013 10:55:00 4.3 C 4.35 g/m*3 0.72 C 16.1 km/h
133 06-12-2013 11:00:00 4.3 C 4.35 g/m*3 0.49 C 17.7 km/h
134 06-12-2013 11:05:00 4.4 C 4.37 g/m*3 0.84 C 16.1 km/h
135 06-12-2013 11:10:00 4.4 C 4.37 g/m*3 0.4 C 19.3 km/h
136 06-12-2013 11:15:00 4.4 C 4.37 g/m*3 0.84 C 16.1 km/h
137 06-12-2013 11:20:00 4.4 C 4.37 g/m*3 0.61 C 17.7 km/h
138 06-12-2013 11:25:00 4.6 C 4.43 g/m*3 0.86 C 17.7 km/h
139 06-12-2013 11:30:00 4.6 C 4.43 g/m*3 1.34 C 14.5 km/h
140 06-12-2013 11:35:00 4.7 C 4.4 g/m*3 1.46 C 14.5 km/h
141 06-12-2013 11:40:00 4.7 C 4.4 g/m*3 1.46 C 14.5 km/h
142 06-12-2013 11:45:00 4.7 C 4.4 g/m*3 0.58 C 20.9 km/h
143 06-12-2013 11:50:00 4.7 C 4.4 g/m*3 0.78 C 19.3 km/h
144 06-12-2013 11:55:00 4.6 C 4.43 g/m*3 1.34 C 14.5 km/h
145 06-12-2013 12:00:00 4.6 C 4.43 g/m*3 1.34 C 14.5 km/h
146 06-12-2013 12:05:00 4.7 C 4.53 g/m*3 0.99 C 17.7 km/h
147 06-12-2013 12:10:00 4.7 C 4.53 g/m*3 1.21 C 16.1 km/h
148 06-12-2013 12:15:00 4.7 C 4.53 g/m*3 2.76 C 8.1 km/h
149 06-12-2013 12:20:00 4.7 C 4.46 g/m*3 1.21 C 16.1 km/h
150 06-12-2013 12:25:00 4.7 C 4.4 g/m*3 1.21 C 16.1 km/h
Sensor: Nr:Datum:Temp:Abs-Feuchte:Windchill:Wind:
Aussen-T/F 151 06-12-2013 12:30:00 4.7 C 4.46 g/m*3 0.58 C 20.9 km/h
152 06-12-2013 12:35:00 4.8 C 4.43 g/m*3 0.71 C 20.9 km/h
153 06-12-2013 12:40:00 4.7 C 4.4 g/m*3 0.06 C 25.7 km/h
154 06-12-2013 12:45:00 4.8 C 4.43 g/m*3 0.19 C 25.7 km/h
155 06-12-2013 12:50:00 4.8 C 4.43 g/m*3 0.9 C 19.3 km/h
156 06-12-2013 12:55:00 4.8 C 4.29 g/m*3 0.9 C 19.3 km/h
157 06-12-2013 13:00:00 4.8 C 4.29 g/m*3 0.52 C 22.5 km/h
158 06-12-2013 13:05:00 4.9 C 4.32 g/m*3 0.83 C 20.9 km/h
159 06-12-2013 13:10:00 4.9 C 4.32 g/m*3 1.24 C 17.7 km/h
160 06-12-2013 13:15:00 4.9 C 4.25 g/m*3 1.24 C 17.7 km/h
161 06-12-2013 13:20:00 4.9 C 4.25 g/m*3 1.03 C 19.3 km/h
162 06-12-2013 13:25:00 4.9 C 4.25 g/m*3 1.24 C 17.7 km/h
163 06-12-2013 13:30:00 4.9 C 4.25 g/m*3 0.83 C 20.9 km/h
164 06-12-2013 13:35:00 4.9 C 4.32 g/m*3 0.83 C 20.9 km/h
165 06-12-2013 13:40:00 4.9 C 4.32 g/m*3 0.83 C 20.9 km/h
166 06-12-2013 13:45:00 4.9 C 4.32 g/m*3 0.83 C 20.9 km/h
167 06-12-2013 13:50:00 4.9 C 4.32 g/m*3 0.83 C 20.9 km/h
168 06-12-2013 13:55:00 4.9 C 4.32 g/m*3 0.65 C 22.5 km/h
169 06-12-2013 14:00:00 4.9 C 4.25 g/m*3 0.65 C 22.5 km/h
170 06-12-2013 14:05:00 4.9 C 4.32 g/m*3 0.15 C 27.4 km/h
171 06-12-2013 14:10:00 4.9 C 4.32 g/m*3 1.24 C 17.7 km/h
172 06-12-2013 14:15:00 4.9 C 4.32 g/m*3 0.83 C 20.9 km/h
173 06-12-2013 14:20:00 4.9 C 4.32 g/m*3 1.24 C 17.7 km/h
174 06-12-2013 14:25:00 4.9 C 4.25 g/m*3 1.03 C 19.3 km/h
175 06-12-2013 14:30:00 4.9 C 4.25 g/m*3 0.32 C 25.7 km/h
Sensor: Nr:Datum:Temp:Abs-Feuchte:Windchill:Wind:
Aussen-T/F 176 06-12-2013 14:35:00 4.9 C 4.25 g/m*3 1.03 C 19.3 km/h
177 06-12-2013 14:40:00 4.9 C 4.25 g/m*3 2.27 C 11.3 km/h
178 06-12-2013 14:45:00 4.9 C 4.25 g/m*3 1.03 C 19.3 km/h
179 06-12-2013 14:50:00 4.8 C 4.22 g/m*3 1.34 C 16.1 km/h
180 06-12-2013 14:55:00 4.8 C 4.22 g/m*3 1.11 C 17.7 km/h
181 06-12-2013 15:00:00 4.8 C 4.22 g/m*3 1.34 C 16.1 km/h
182 06-12-2013 15:05:00 4.7 C 4.26 g/m*3 0.4 C 22.5 km/h
183 06-12-2013 15:10:00 4.7 C 4.33 g/m*3 0.99 C 17.7 km/h
184 06-12-2013 15:15:00 4.6 C 4.3 g/m*3 1.34 C 14.5 km/h
185 06-12-2013 15:20:00 4.6 C 4.3 g/m*3 0.27 C 22.5 km/h
186 06-12-2013 15:25:00 4.6 C 4.3 g/m*3 0.27 C 22.5 km/h
187 06-12-2013 15:30:00 4.6 C 4.37 g/m*3 1.09 C 16.1 km/h
188 06-12-2013 15:35:00 4.6 C 4.37 g/m*3 1.34 C 14.5 km/h
189 06-12-2013 15:40:00 4.6 C 4.37 g/m*3 1.09 C 16.1 km/h
190 06-12-2013 15:45:00 4.5 C 4.34 g/m*3 0.52 C 19.3 km/h
191 06-12-2013 15:50:00 4.5 C 4.34 g/m*3 1.79 C 11.3 km/h
192 06-12-2013 15:55:00 4.4 C 4.31 g/m*3 1.36 C 12.9 km/h
193 06-12-2013 16:00:00 4.4 C 4.31 g/m*3 -0.16 C 24.1 km/h
194 06-12-2013 16:05:00 4.4 C 4.31 g/m*3 0.84 C 16.1 km/h
195 06-12-2013 16:10:00 4.4 C 4.31 g/m*3 1.67 C 11.3 km/h
196 06-12-2013 16:15:00 4.4 C 4.44 g/m*3 0.01 C 22.5 km/h
197 06-12-2013 16:20:00 4.3 C 4.41 g/m*3 1.24 C 12.9 km/h
198 06-12-2013 16:25:00 4.2 C 4.45 g/m*3 0.59 C 16.1 km/h
199 06-12-2013 16:30:00 4.2 C 4.51 g/m*3 1.43 C 11.3 km/h
200 06-12-2013 16:35:00 4.2 C 4.57 g/m*3 1.43 C 11.3 km/h
Sensor: Nr:Datum:Temp:Abs-Feuchte:Windchill:Wind:
Aussen-T/F 201 06-12-2013 16:40:00 4.1 C 4.54 g/m*3 1 C 12.9 km/h
202 06-12-2013 16:45:00 4.1 C 4.54 g/m*3 2.05 C 8.1 km/h
203 06-12-2013 16:50:00 4.1 C 4.61 g/m*3 2.05 C 8.1 km/h
204 06-12-2013 16:55:00 3.9 C 4.74 g/m*3 1.82 C 8.1 km/h
205 06-12-2013 17:00:00 3.7 C 4.86 g/m*3 0.82 C 11.3 km/h
206 06-12-2013 17:05:00 3.5 C 4.92 g/m*3 1.86 C 6.4 km/h
207 06-12-2013 17:10:00 3.3 C 4.97 g/m*3 3.3 C 4.8 km/h
208 06-12-2013 17:15:00 3.2 C 5 g/m*3 1.51 C 6.4 km/h
209 06-12-2013 17:20:00 3 C 4.99 g/m*3 -0.34 C 12.9 km/h
210 06-12-2013 17:25:00 2.8 C 4.99 g/m*3 1.05 C 6.4 km/h
211 06-12-2013 17:30:00 2.7 C 5.01 g/m*3 -0.02 C 9.7 km/h
212 06-12-2013 17:35:00 2.5 C 5 g/m*3 -0.26 C 9.7 km/h
213 06-12-2013 17:40:00 2.4 C 5.02 g/m*3 0.59 C 6.4 km/h
214 06-12-2013 17:45:00 2.3 C 5.05 g/m*3 2.3 C 4.8 km/h
215 06-12-2013 17:50:00 2.3 C 5.05 g/m*3 0.47 C 6.4 km/h
216 06-12-2013 17:55:00 2.3 C 5.05 g/m*3 -0.07 C 8.1 km/h
217 06-12-2013 18:00:00 2.3 C 5.05 g/m*3 -0.49 C 9.7 km/h
218 06-12-2013 18:05:00 2.2 C 5.01 g/m*3 -0.18 C 8.1 km/h
219 06-12-2013 18:10:00 2.2 C 5.07 g/m*3 2.2 C 4.8 km/h
220 06-12-2013 18:15:00 2.2 C 5.07 g/m*3 0.36 C 6.4 km/h
221 06-12-2013 18:20:00 2.2 C 5.07 g/m*3 -0.18 C 8.1 km/h
222 06-12-2013 18:25:00 2.2 C 5.07 g/m*3 -0.99 C 11.3 km/h
223 06-12-2013 18:30:00 2.3 C 5.1 g/m*3 -0.87 C 11.3 km/h
224 06-12-2013 18:35:00 2.3 C 5.05 g/m*3 -0.87 C 11.3 km/h
225 06-12-2013 18:40:00 2.3 C 5.1 g/m*3 -0.49 C 9.7 km/h
Sensor: Nr:Datum:Temp:Abs-Feuchte:Windchill:Wind:
Aussen-T/F 226 06-12-2013 18:45:00 2.2 C 5.07 g/m*3 -0.18 C 8.1 km/h
227 06-12-2013 18:50:00 2.2 C 5.07 g/m*3 -0.18 C 8.1 km/h
228 06-12-2013 18:55:00 2.2 C 5.07 g/m*3 -0.61 C 9.7 km/h
229 06-12-2013 19:00:00 2.2 C 5.07 g/m*3 0.36 C 6.4 km/h
230 06-12-2013 19:05:00 2.3 C 5.05 g/m*3 0.47 C 6.4 km/h
231 06-12-2013 19:10:00 2.3 C 5.05 g/m*3 -0.49 C 9.7 km/h
232 06-12-2013 19:15:00 2.4 C 5.02 g/m*3 -0.37 C 9.7 km/h
233 06-12-2013 19:20:00 2.5 C 5 g/m*3 0.71 C 6.4 km/h
234 06-12-2013 19:25:00 2.5 C 5.06 g/m*3 2.5 C 4.8 km/h
235 06-12-2013 19:30:00 2.4 C 5.08 g/m*3 0.05 C 8.1 km/h
236 06-12-2013 19:35:00 2.3 C 5.05 g/m*3 0.47 C 6.4 km/h
237 06-12-2013 19:40:00 2.4 C 5.08 g/m*3 2.4 C 4.8 km/h
238 06-12-2013 19:45:00 2.4 C 5.02 g/m*3 0.05 C 8.1 km/h
239 06-12-2013 19:50:00 2.5 C 5.06 g/m*3 0.17 C 8.1 km/h
240 06-12-2013 19:55:00 2.6 C 5.03 g/m*3 0.82 C 6.4 km/h
241 06-12-2013 20:00:00 2.6 C 5.03 g/m*3 0.82 C 6.4 km/h
242 06-12-2013 20:05:00 2.7 C 5.07 g/m*3 2.7 C 4.8 km/h
243 06-12-2013 20:10:00 2.7 C 5.07 g/m*3 0.94 C 6.4 km/h
244 06-12-2013 20:15:00 2.7 C 5.07 g/m*3 2.7 C 4.8 km/h
245 06-12-2013 20:20:00 2.6 C 5.03 g/m*3 -0.83 C 12.9 km/h
246 06-12-2013 20:25:00 2.6 C 5.03 g/m*3 0.82 C 6.4 km/h
247 06-12-2013 20:30:00 2.6 C 5.03 g/m*3 0.82 C 6.4 km/h
248 06-12-2013 20:35:00 2.7 C 5.01 g/m*3 -1 C 14.5 km/h
249 06-12-2013 20:40:00 2.8 C 4.99 g/m*3 0.1 C 9.7 km/h
250 06-12-2013 20:45:00 2.8 C 4.93 g/m*3 0.1 C 9.7 km/h
Sensor: Nr:Datum:Temp:Abs-Feuchte:Windchill:Wind:
Aussen-T/F 251 06-12-2013 20:50:00 2.9 C 4.9 g/m*3 -0.46 C 12.9 km/h
252 06-12-2013 20:55:00 3 C 4.93 g/m*3 -0.02 C 11.3 km/h
253 06-12-2013 21:00:00 3.1 C 4.91 g/m*3 0.1 C 11.3 km/h
254 06-12-2013 21:05:00 3.1 C 4.91 g/m*3 -0.22 C 12.9 km/h
255 06-12-2013 21:10:00 3.2 C 4.94 g/m*3 -0.1 C 12.9 km/h
256 06-12-2013 21:15:00 3.2 C 4.88 g/m*3 -0.1 C 12.9 km/h
257 06-12-2013 21:20:00 3.2 C 4.88 g/m*3 -0.39 C 14.5 km/h
258 06-12-2013 21:25:00 3.2 C 4.88 g/m*3 0.58 C 9.7 km/h
259 06-12-2013 21:30:00 3.2 C 4.82 g/m*3 0.58 C 9.7 km/h
260 06-12-2013 21:35:00 3.3 C 4.79 g/m*3 0.34 C 11.3 km/h
261 06-12-2013 21:40:00 3.3 C 4.79 g/m*3 0.34 C 11.3 km/h
262 06-12-2013 21:45:00 3.3 C 4.79 g/m*3 0.34 C 11.3 km/h
263 06-12-2013 21:50:00 3.3 C 4.79 g/m*3 1.11 C 8.1 km/h
264 06-12-2013 21:55:00 3.3 C 4.79 g/m*3 -0.26 C 14.5 km/h
265 06-12-2013 22:00:00 3.3 C 4.79 g/m*3 0.7 C 9.7 km/h
266 06-12-2013 22:05:00 3.3 C 4.73 g/m*3 1.11 C 8.1 km/h
267 06-12-2013 22:10:00 3.3 C 4.73 g/m*3 0.34 C 11.3 km/h
268 06-12-2013 22:15:00 3.3 C 4.73 g/m*3 0.34 C 11.3 km/h
269 06-12-2013 22:20:00 3.3 C 4.73 g/m*3 1.63 C 6.4 km/h
270 06-12-2013 22:25:00 3.3 C 4.79 g/m*3 0.02 C 12.9 km/h
271 06-12-2013 22:30:00 3.3 C 4.73 g/m*3 0.02 C 12.9 km/h
272 06-12-2013 22:35:00 3.4 C 4.7 g/m*3 0.82 C 9.7 km/h
273 06-12-2013 22:40:00 3.6 C 4.77 g/m*3 1.06 C 9.7 km/h
274 06-12-2013 22:45:00 3.6 C 4.7 g/m*3 1.46 C 8.1 km/h
275 06-12-2013 22:50:00 3.6 C 4.7 g/m*3 0.39 C 12.9 km/h
Sensor: Nr:Datum:Temp:Abs-Feuchte:Windchill:Wind:
Aussen-T/F 276 06-12-2013 22:55:00 3.7 C 4.74 g/m*3 -0.03 C 16.1 km/h
277 06-12-2013 23:00:00 3.7 C 4.74 g/m*3 0.51 C 12.9 km/h
278 06-12-2013 23:05:00 3.6 C 4.77 g/m*3 0.7 C 11.3 km/h
279 06-12-2013 23:10:00 3.6 C 4.77 g/m*3 0.39 C 12.9 km/h
280 06-12-2013 23:15:00 3.7 C 4.8 g/m*3 0.82 C 11.3 km/h
281 06-12-2013 23:20:00 3.7 C 4.8 g/m*3 0.82 C 11.3 km/h
282 06-12-2013 23:25:00 3.6 C 4.77 g/m*3 0.11 C 14.5 km/h
283 06-12-2013 23:30:00 3.5 C 4.73 g/m*3 0.27 C 12.9 km/h
284 06-12-2013 23:35:00 3.4 C 4.76 g/m*3 0.14 C 12.9 km/h
285 06-12-2013 23:40:00 3.3 C 4.73 g/m*3 0.02 C 12.9 km/h
286 06-12-2013 23:45:00 3.3 C 4.73 g/m*3 0.02 C 12.9 km/h
287 06-12-2013 23:50:00 3.3 C 4.79 g/m*3 -0.52 C 16.1 km/h
288 06-12-2013 23:55:00 3.3 C 4.79 g/m*3 0.34 C 11.3 km/h

Legende:
   Min
   Max


Maximal/Minimal-Werte vom 06.12.2013 - 06.12.2013

Sensor Min Max Avg
Temp
(Aussen-T/F)
2.2 °C
06-12-2013  18:05:00
4.9 °C
06-12-2013  13:05:00
3.76 °C
Abs-Feuchte
(Aussen-T/F)
4.22 g/m*3
06-12-2013  14:50:00
5.37 g/m*3
06-12-2013  00:50:00
4.65 g/m*3
Windchill
(Aussen-T/F)
-1.1 C
06-12-2013  07:55:00
3.4 C
06-12-2013  01:05:00
0.68 C

Die Daten stammen von einer Davis Vantage Pro 2 Wetter-Station und werden unter Linux mit der Software wview2wettercgi und aufbereitet. Alle Angaben erfolgen ohne Gewähr für ihre Vollständigkeit oder Richtigkeit.
Kontakt: Rainer Krienke krienke@uni-koblenz.de . Meine Webseiten an der Uni Koblenz oder privat.
Version: $Revision: 0.78 $